sensor_id;sensor_type;location;lat;lon;timestamp;P1;durP1;ratioP1;P2;durP2;ratioP2
1682;SDS011;13252;53.596;10.060;2023-03-23T00:01:07;11.13;;;7.03;;
1682;SDS011;13252;53.596;10.060;2023-03-23T00:03:37;9.37;;;6.57;;
1682;SDS011;13252;53.596;10.060;2023-03-23T00:06:04;8.93;;;7.90;;
1682;SDS011;13252;53.596;10.060;2023-03-23T00:08:31;13.50;;;9.37;;
1682;SDS011;13252;53.596;10.060;2023-03-23T00:10:58;9.60;;;8.40;;
1682;SDS011;13252;53.596;10.060;2023-03-23T00:13:26;9.90;;;8.90;;
1682;SDS011;13252;53.596;10.060;2023-03-23T00:15:53;10.20;;;9.20;;
1682;SDS011;13252;53.596;10.060;2023-03-23T00:18:22;12.87;;;8.63;;
1682;SDS011;13252;53.596;10.060;2023-03-23T00:20:51;12.33;;;9.73;;
1682;SDS011;13252;53.596;10.060;2023-03-23T00:23:19;11.40;;;10.27;;
1682;SDS011;13252;53.596;10.060;2023-03-23T00:25:47;11.73;;;10.40;;
1682;SDS011;13252;53.596;10.060;2023-03-23T00:28:14;12.33;;;10.87;;
1682;SDS011;13252;53.596;10.060;2023-03-23T00:30:43;11.43;;;10.33;;
1682;SDS011;13252;53.596;10.060;2023-03-23T00:33:10;13.07;;;11.73;;
1682;SDS011;13252;53.596;10.060;2023-03-23T00:35:39;14.13;;;12.73;;
1682;SDS011;13252;53.596;10.060;2023-03-23T00:38:08;14.50;;;12.63;;
1682;SDS011;13252;53.596;10.060;2023-03-23T00:40:34;16.70;;;12.77;;
1682;SDS011;13252;53.596;10.060;2023-03-23T00:43:02;14.43;;;12.07;;
1682;SDS011;13252;53.596;10.060;2023-03-23T00:45:29;15.37;;;13.63;;
1682;SDS011;13252;53.596;10.060;2023-03-23T00:47:56;15.73;;;13.03;;
1682;SDS011;13252;53.596;10.060;2023-03-23T00:50:29;11.80;;;10.63;;
1682;SDS011;13252;53.596;10.060;2023-03-23T00:52:56;15.80;;;14.20;;
1682;SDS011;13252;53.596;10.060;2023-03-23T00:55:24;14.03;;;12.73;;
1682;SDS011;13252;53.596;10.060;2023-03-23T00:57:51;16.37;;;14.77;;
1682;SDS011;13252;53.596;10.060;2023-03-23T01:00:19;16.67;;;13.33;;
1682;SDS011;13252;53.596;10.060;2023-03-23T01:02:46;14.27;;;12.90;;
1682;SDS011;13252;53.596;10.060;2023-03-23T01:05:12;14.97;;;13.37;;
1682;SDS011;13252;53.596;10.060;2023-03-23T01:07:40;16.63;;;13.30;;
1682;SDS011;13252;53.596;10.060;2023-03-23T01:10:09;15.50;;;13.30;;
1682;SDS011;13252;53.596;10.060;2023-03-23T01:12:39;15.37;;;13.87;;
1682;SDS011;13252;53.596;10.060;2023-03-23T01:15:05;18.70;;;14.40;;
1682;SDS011;13252;53.596;10.060;2023-03-23T01:17:32;13.87;;;12.47;;
1682;SDS011;13252;53.596;10.060;2023-03-23T01:19:59;15.10;;;13.00;;
1682;SDS011;13252;53.596;10.060;2023-03-23T01:22:29;14.53;;;13.13;;
1682;SDS011;13252;53.596;10.060;2023-03-23T01:24:56;13.87;;;12.57;;
1682;SDS011;13252;53.596;10.060;2023-03-23T01:27:22;16.33;;;13.60;;
1682;SDS011;13252;53.596;10.060;2023-03-23T01:29:50;17.23;;;15.40;;
1682;SDS011;13252;53.596;10.060;2023-03-23T01:32:17;16.50;;;14.00;;
1682;SDS011;13252;53.596;10.060;2023-03-23T01:34:44;17.73;;;14.70;;
1682;SDS011;13252;53.596;10.060;2023-03-23T01:37:11;16.73;;;15.03;;
1682;SDS011;13252;53.596;10.060;2023-03-23T01:39:38;20.20;;;15.70;;
1682;SDS011;13252;53.596;10.060;2023-03-23T01:42:07;20.60;;;16.30;;
1682;SDS011;13252;53.596;10.060;2023-03-23T01:47:52;17.07;;;15.30;;
1682;SDS011;13252;53.596;10.060;2023-03-23T01:50:22;22.73;;;16.90;;
1682;SDS011;13252;53.596;10.060;2023-03-23T01:52:52;17.63;;;15.87;;
1682;SDS011;13252;53.596;10.060;2023-03-23T01:55:20;19.90;;;17.90;;
1682;SDS011;13252;53.596;10.060;2023-03-23T01:57:48;18.73;;;16.30;;
1682;SDS011;13252;53.596;10.060;2023-03-23T02:00:16;18.90;;;16.30;;
1682;SDS011;13252;53.596;10.060;2023-03-23T02:02:48;19.70;;;16.17;;
1682;SDS011;13252;53.596;10.060;2023-03-23T02:05:21;20.20;;;17.20;;
1682;SDS011;13252;53.596;10.060;2023-03-23T02:07:54;19.83;;;17.70;;
1682;SDS011;13252;53.596;10.060;2023-03-23T02:10:21;19.40;;;17.30;;
1682;SDS011;13252;53.596;10.060;2023-03-23T02:12:47;19.90;;;17.17;;
1682;SDS011;13252;53.596;10.060;2023-03-23T02:15:15;19.70;;;16.27;;
1682;SDS011;13252;53.596;10.060;2023-03-23T02:17:45;20.60;;;16.73;;
1682;SDS011;13252;53.596;10.060;2023-03-23T02:20:17;19.60;;;17.60;;
1682;SDS011;13252;53.596;10.060;2023-03-23T02:26:02;18.33;;;16.20;;
1682;SDS011;13252;53.596;10.060;2023-03-23T02:28:48;22.13;;;15.60;;
1682;SDS011;13252;53.596;10.060;2023-03-23T02:31:28;17.53;;;15.70;;
1682;SDS011;13252;53.596;10.060;2023-03-23T02:34:06;18.57;;;16.37;;
1682;SDS011;13252;53.596;10.060;2023-03-23T02:36:38;21.57;;;16.57;;
1682;SDS011;13252;53.596;10.060;2023-03-23T02:39:09;17.07;;;15.33;;
1682;SDS011;13252;53.596;10.060;2023-03-23T02:41:38;16.33;;;14.57;;
1682;SDS011;13252;53.596;10.060;2023-03-23T02:44:06;16.03;;;14.53;;
1682;SDS011;13252;53.596;10.060;2023-03-23T02:46:35;19.97;;;13.60;;
1682;SDS011;13252;53.596;10.060;2023-03-23T02:49:03;17.10;;;14.20;;
1682;SDS011;13252;53.596;10.060;2023-03-23T02:51:32;16.40;;;13.20;;
1682;SDS011;13252;53.596;10.060;2023-03-23T02:54:01;15.63;;;13.23;;
1682;SDS011;13252;53.596;10.060;2023-03-23T02:56:28;13.47;;;12.17;;
1682;SDS011;13252;53.596;10.060;2023-03-23T02:58:59;14.50;;;11.80;;
1682;SDS011;13252;53.596;10.060;2023-03-23T03:04:33;15.60;;;12.03;;
1682;SDS011;13252;53.596;10.060;2023-03-23T03:07:04;11.80;;;10.20;;
1682;SDS011;13252;53.596;10.060;2023-03-23T03:09:39;13.93;;;12.63;;
1682;SDS011;13252;53.596;10.060;2023-03-23T03:12:10;14.10;;;12.53;;
1682;SDS011;13252;53.596;10.060;2023-03-23T03:14:41;14.60;;;12.43;;
1682;SDS011;13252;53.596;10.060;2023-03-23T03:17:12;14.40;;;13.00;;
1682;SDS011;13252;53.596;10.060;2023-03-23T03:19:46;12.93;;;11.63;;
1682;SDS011;13252;53.596;10.060;2023-03-23T03:22:15;13.40;;;12.10;;
1682;SDS011;13252;53.596;10.060;2023-03-23T03:24:42;13.70;;;12.40;;
1682;SDS011;13252;53.596;10.060;2023-03-23T03:27:12;13.27;;;11.97;;
1682;SDS011;13252;53.596;10.060;2023-03-23T03:29:45;13.63;;;12.43;;
1682;SDS011;13252;53.596;10.060;2023-03-23T03:32:16;13.00;;;11.80;;
1682;SDS011;13252;53.596;10.060;2023-03-23T03:34:46;13.50;;;11.27;;
1682;SDS011;13252;53.596;10.060;2023-03-23T03:37:15;17.50;;;12.90;;
1682;SDS011;13252;53.596;10.060;2023-03-23T03:39:44;15.73;;;14.33;;
1682;SDS011;13252;53.596;10.060;2023-03-23T03:42:11;14.77;;;13.37;;
1682;SDS011;13252;53.596;10.060;2023-03-23T03:44:38;16.00;;;14.50;;
1682;SDS011;13252;53.596;10.060;2023-03-23T03:47:04;15.57;;;14.03;;
1682;SDS011;13252;53.596;10.060;2023-03-23T03:49:31;16.03;;;14.00;;
1682;SDS011;13252;53.596;10.060;2023-03-23T03:51:59;15.47;;;13.83;;
1682;SDS011;13252;53.596;10.060;2023-03-23T03:54:35;14.93;;;13.53;;
1682;SDS011;13252;53.596;10.060;2023-03-23T03:57:02;15.30;;;13.77;;
1682;SDS011;13252;53.596;10.060;2023-03-23T03:59:35;15.83;;;14.37;;
1682;SDS011;13252;53.596;10.060;2023-03-23T04:02:34;16.40;;;13.90;;
1682;SDS011;13252;53.596;10.060;2023-03-23T04:05:01;14.67;;;13.20;;
1682;SDS011;13252;53.596;10.060;2023-03-23T04:07:31;17.70;;;14.57;;
1682;SDS011;13252;53.596;10.060;2023-03-23T04:09:58;17.50;;;13.63;;
1682;SDS011;13252;53.596;10.060;2023-03-23T04:12:25;15.07;;;12.13;;
1682;SDS011;13252;53.596;10.060;2023-03-23T04:14:54;14.63;;;13.10;;
1682;SDS011;13252;53.596;10.060;2023-03-23T04:17:24;13.23;;;11.90;;
1682;SDS011;13252;53.596;10.060;2023-03-23T04:19:52;17.20;;;13.57;;
1682;SDS011;13252;53.596;10.060;2023-03-23T04:22:22;16.83;;;11.70;;
1682;SDS011;13252;53.596;10.060;2023-03-23T04:24:57;12.43;;;11.33;;
1682;SDS011;13252;53.596;10.060;2023-03-23T04:27:25;13.27;;;12.07;;
1682;SDS011;13252;53.596;10.060;2023-03-23T04:29:54;13.53;;;12.10;;
1682;SDS011;13252;53.596;10.060;2023-03-23T04:32:37;14.60;;;13.10;;
1682;SDS011;13252;53.596;10.060;2023-03-23T04:35:07;17.37;;;12.47;;
1682;SDS011;13252;53.596;10.060;2023-03-23T04:37:40;13.90;;;12.40;;
1682;SDS011;13252;53.596;10.060;2023-03-23T04:40:10;13.20;;;11.80;;
1682;SDS011;13252;53.596;10.060;2023-03-23T04:42:43;15.00;;;12.17;;
1682;SDS011;13252;53.596;10.060;2023-03-23T04:45:30;14.30;;;12.80;;
1682;SDS011;13252;53.596;10.060;2023-03-23T04:47:59;16.30;;;11.77;;
1682;SDS011;13252;53.596;10.060;2023-03-23T04:50:36;12.67;;;11.47;;
1682;SDS011;13252;53.596;10.060;2023-03-23T04:53:13;14.07;;;12.10;;
1682;SDS011;13252;53.596;10.060;2023-03-23T04:55:45;13.57;;;12.17;;
1682;SDS011;13252;53.596;10.060;2023-03-23T04:58:14;16.77;;;12.10;;
1682;SDS011;13252;53.596;10.060;2023-03-23T05:01:07;12.87;;;11.57;;
1682;SDS011;13252;53.596;10.060;2023-03-23T05:03:42;13.83;;;12.50;;
1682;SDS011;13252;53.596;10.060;2023-03-23T05:06:09;13.77;;;12.40;;
1682;SDS011;13252;53.596;10.060;2023-03-23T05:08:37;13.07;;;11.80;;
1682;SDS011;13252;53.596;10.060;2023-03-23T05:11:06;18.10;;;12.10;;
1682;SDS011;13252;53.596;10.060;2023-03-23T05:13:37;14.33;;;12.57;;
1682;SDS011;13252;53.596;10.060;2023-03-23T05:16:06;17.00;;;13.17;;
1682;SDS011;13252;53.596;10.060;2023-03-23T05:18:35;15.40;;;12.60;;
1682;SDS011;13252;53.596;10.060;2023-03-23T05:21:05;14.83;;;13.27;;
1682;SDS011;13252;53.596;10.060;2023-03-23T05:23:35;15.10;;;12.40;;
1682;SDS011;13252;53.596;10.060;2023-03-23T05:26:13;14.00;;;12.70;;
1682;SDS011;13252;53.596;10.060;2023-03-23T05:28:40;13.73;;;12.30;;
1682;SDS011;13252;53.596;10.060;2023-03-23T05:31:14;12.23;;;11.13;;
1682;SDS011;13252;53.596;10.060;2023-03-23T05:33:41;15.30;;;11.80;;
1682;SDS011;13252;53.596;10.060;2023-03-23T05:36:20;12.70;;;11.40;;
1682;SDS011;13252;53.596;10.060;2023-03-23T05:39:06;11.90;;;10.70;;
1682;SDS011;13252;53.596;10.060;2023-03-23T05:41:55;13.20;;;10.10;;
1682;SDS011;13252;53.596;10.060;2023-03-23T05:44:25;12.03;;;9.87;;
1682;SDS011;13252;53.596;10.060;2023-03-23T05:46:57;12.37;;;10.17;;
1682;SDS011;13252;53.596;10.060;2023-03-23T05:49:24;14.07;;;8.40;;
1682;SDS011;13252;53.596;10.060;2023-03-23T05:51:52;11.40;;;9.40;;
1682;SDS011;13252;53.596;10.060;2023-03-23T05:54:20;10.63;;;9.60;;
1682;SDS011;13252;53.596;10.060;2023-03-23T05:56:48;11.20;;;10.10;;
1682;SDS011;13252;53.596;10.060;2023-03-23T05:59:37;11.33;;;9.37;;
1682;SDS011;13252;53.596;10.060;2023-03-23T06:02:06;14.63;;;9.30;;
1682;SDS011;13252;53.596;10.060;2023-03-23T06:04:33;11.03;;;8.53;;
1682;SDS011;13252;53.596;10.060;2023-03-23T06:07:08;11.07;;;8.83;;
1682;SDS011;13252;53.596;10.060;2023-03-23T06:09:39;9.70;;;8.77;;
1682;SDS011;13252;53.596;10.060;2023-03-23T06:12:25;10.87;;;8.43;;
1682;SDS011;13252;53.596;10.060;2023-03-23T06:15:20;10.57;;;7.20;;
1682;SDS011;13252;53.596;10.060;2023-03-23T06:18:06;9.23;;;6.87;;
1682;SDS011;13252;53.596;10.060;2023-03-23T06:20:39;11.43;;;7.67;;
1682;SDS011;13252;53.596;10.060;2023-03-23T06:23:21;15.40;;;7.87;;
1682;SDS011;13252;53.596;10.060;2023-03-23T06:25:52;9.07;;;6.20;;
1682;SDS011;13252;53.596;10.060;2023-03-23T06:28:19;7.80;;;6.70;;
1682;SDS011;13252;53.596;10.060;2023-03-23T06:30:49;11.40;;;7.40;;
1682;SDS011;13252;53.596;10.060;2023-03-23T06:33:16;9.03;;;7.47;;
1682;SDS011;13252;53.596;10.060;2023-03-23T06:36:18;15.37;;;7.67;;
1682;SDS011;13252;53.596;10.060;2023-03-23T06:39:08;12.47;;;7.07;;
1682;SDS011;13252;53.596;10.060;2023-03-23T06:41:57;9.80;;;7.17;;
1682;SDS011;13252;53.596;10.060;2023-03-23T06:44:25;9.70;;;7.20;;
1682;SDS011;13252;53.596;10.060;2023-03-23T06:46:54;8.83;;;6.50;;
1682;SDS011;13252;53.596;10.060;2023-03-23T06:49:25;9.43;;;6.90;;
1682;SDS011;13252;53.596;10.060;2023-03-23T06:52:00;7.40;;;6.70;;
1682;SDS011;13252;53.596;10.060;2023-03-23T06:54:29;12.03;;;7.80;;
1682;SDS011;13252;53.596;10.060;2023-03-23T06:56:59;9.63;;;6.77;;
1682;SDS011;13252;53.596;10.060;2023-03-23T06:59:26;11.30;;;6.63;;
1682;SDS011;13252;53.596;10.060;2023-03-23T07:01:54;7.73;;;6.53;;
1682;SDS011;13252;53.596;10.060;2023-03-23T07:04:20;8.00;;;5.07;;
1682;SDS011;13252;53.596;10.060;2023-03-23T07:06:56;7.00;;;5.77;;
1682;SDS011;13252;53.596;10.060;2023-03-23T07:09:23;10.70;;;5.37;;
1682;SDS011;13252;53.596;10.060;2023-03-23T07:11:50;6.23;;;5.23;;
1682;SDS011;13252;53.596;10.060;2023-03-23T07:14:27;6.70;;;5.50;;
1682;SDS011;13252;53.596;10.060;2023-03-23T07:16:55;10.53;;;6.03;;
1682;SDS011;13252;53.596;10.060;2023-03-23T07:19:22;8.80;;;5.33;;
1682;SDS011;13252;53.596;10.060;2023-03-23T07:21:49;7.60;;;4.23;;
1682;SDS011;13252;53.596;10.060;2023-03-23T07:24:19;10.43;;;6.03;;
1682;SDS011;13252;53.596;10.060;2023-03-23T07:26:59;6.47;;;4.73;;
1682;SDS011;13252;53.596;10.060;2023-03-23T07:29:27;10.03;;;4.57;;
1682;SDS011;13252;53.596;10.060;2023-03-23T07:32:06;6.53;;;4.90;;
1682;SDS011;13252;53.596;10.060;2023-03-23T07:34:33;7.90;;;4.30;;
1682;SDS011;13252;53.596;10.060;2023-03-23T07:37:11;11.10;;;4.90;;
1682;SDS011;13252;53.596;10.060;2023-03-23T07:39:41;13.67;;;4.33;;
1682;SDS011;13252;53.596;10.060;2023-03-23T07:42:09;5.93;;;4.30;;
1682;SDS011;13252;53.596;10.060;2023-03-23T07:44:45;7.77;;;4.97;;
1682;SDS011;13252;53.596;10.060;2023-03-23T07:47:14;5.40;;;3.90;;
1682;SDS011;13252;53.596;10.060;2023-03-23T07:49:46;9.13;;;3.80;;
1682;SDS011;13252;53.596;10.060;2023-03-23T07:52:20;6.93;;;4.77;;
1682;SDS011;13252;53.596;10.060;2023-03-23T07:54:46;7.50;;;5.17;;
1682;SDS011;13252;53.596;10.060;2023-03-23T07:57:33;8.10;;;4.07;;
1682;SDS011;13252;53.596;10.060;2023-03-23T08:00:03;6.00;;;4.83;;
1682;SDS011;13252;53.596;10.060;2023-03-23T08:02:46;17.43;;;5.20;;
1682;SDS011;13252;53.596;10.060;2023-03-23T08:05:25;11.33;;;6.17;;
1682;SDS011;13252;53.596;10.060;2023-03-23T08:08:10;8.43;;;5.20;;
1682;SDS011;13252;53.596;10.060;2023-03-23T08:11:00;7.47;;;5.10;;
1682;SDS011;13252;53.596;10.060;2023-03-23T08:13:45;7.50;;;5.43;;
1682;SDS011;13252;53.596;10.060;2023-03-23T08:16:31;6.57;;;5.57;;
1682;SDS011;13252;53.596;10.060;2023-03-23T08:19:18;7.10;;;5.40;;
1682;SDS011;13252;53.596;10.060;2023-03-23T08:21:44;7.77;;;5.70;;
1682;SDS011;13252;53.596;10.060;2023-03-23T08:24:23;15.90;;;6.70;;
1682;SDS011;13252;53.596;10.060;2023-03-23T08:26:57;6.93;;;5.40;;
1682;SDS011;13252;53.596;10.060;2023-03-23T08:29:37;7.90;;;6.00;;
1682;SDS011;13252;53.596;10.060;2023-03-23T08:32:18;6.67;;;5.50;;
1682;SDS011;13252;53.596;10.060;2023-03-23T08:35:05;5.20;;;4.07;;
1682;SDS011;13252;53.596;10.060;2023-03-23T08:37:46;4.53;;;2.50;;
1682;SDS011;13252;53.596;10.060;2023-03-23T08:40:45;3.53;;;2.40;;
1682;SDS011;13252;53.596;10.060;2023-03-23T08:43:42;4.60;;;3.30;;
1682;SDS011;13252;53.596;10.060;2023-03-23T08:46:08;5.77;;;3.53;;
1682;SDS011;13252;53.596;10.060;2023-03-23T08:49:05;6.70;;;2.90;;
1682;SDS011;13252;53.596;10.060;2023-03-23T08:52:05;4.77;;;2.67;;
1682;SDS011;13252;53.596;10.060;2023-03-23T08:54:56;7.23;;;3.00;;
1682;SDS011;13252;53.596;10.060;2023-03-23T08:57:32;3.97;;;3.00;;
1682;SDS011;13252;53.596;10.060;2023-03-23T09:00:19;8.30;;;4.00;;
1682;SDS011;13252;53.596;10.060;2023-03-23T09:03:10;6.47;;;3.07;;
1682;SDS011;13252;53.596;10.060;2023-03-23T09:05:57;4.33;;;3.00;;
1682;SDS011;13252;53.596;10.060;2023-03-23T09:08:33;5.53;;;3.13;;
1682;SDS011;13252;53.596;10.060;2023-03-23T09:11:00;5.07;;;3.30;;
1682;SDS011;13252;53.596;10.060;2023-03-23T09:13:28;6.13;;;3.30;;
1682;SDS011;13252;53.596;10.060;2023-03-23T09:15:56;7.53;;;3.30;;
1682;SDS011;13252;53.596;10.060;2023-03-23T09:18:23;7.20;;;3.30;;
1682;SDS011;13252;53.596;10.060;2023-03-23T09:20:51;5.60;;;3.03;;
1682;SDS011;13252;53.596;10.060;2023-03-23T09:23:19;10.73;;;4.23;;
1682;SDS011;13252;53.596;10.060;2023-03-23T09:25:47;6.30;;;2.97;;
1682;SDS011;13252;53.596;10.060;2023-03-23T09:28:14;6.87;;;2.87;;
1682;SDS011;13252;53.596;10.060;2023-03-23T09:30:41;7.63;;;2.57;;
1682;SDS011;13252;53.596;10.060;2023-03-23T09:33:09;6.47;;;2.47;;
1682;SDS011;13252;53.596;10.060;2023-03-23T09:35:36;9.53;;;3.60;;
1682;SDS011;13252;53.596;10.060;2023-03-23T09:38:03;5.60;;;2.30;;
1682;SDS011;13252;53.596;10.060;2023-03-23T09:40:32;9.87;;;2.67;;
1682;SDS011;13252;53.596;10.060;2023-03-23T09:46:21;10.20;;;3.17;;
1682;SDS011;13252;53.596;10.060;2023-03-23T09:48:53;16.03;;;2.87;;
1682;SDS011;13252;53.596;10.060;2023-03-23T09:51:29;7.00;;;2.10;;
1682;SDS011;13252;53.596;10.060;2023-03-23T09:54:03;9.37;;;2.53;;
1682;SDS011;13252;53.596;10.060;2023-03-23T09:56:33;12.70;;;2.40;;
1682;SDS011;13252;53.596;10.060;2023-03-23T09:59:05;13.50;;;2.77;;
1682;SDS011;13252;53.596;10.060;2023-03-23T10:01:39;16.57;;;3.30;;
1682;SDS011;13252;53.596;10.060;2023-03-23T10:04:10;11.93;;;2.80;;
1682;SDS011;13252;53.596;10.060;2023-03-23T10:06:42;13.40;;;2.73;;
1682;SDS011;13252;53.596;10.060;2023-03-23T10:09:11;11.37;;;2.87;;
1682;SDS011;13252;53.596;10.060;2023-03-23T10:11:44;19.30;;;2.97;;
1682;SDS011;13252;53.596;10.060;2023-03-23T10:14:21;10.03;;;2.93;;
1682;SDS011;13252;53.596;10.060;2023-03-23T10:16:55;10.27;;;3.07;;
1682;SDS011;13252;53.596;10.060;2023-03-23T10:19:29;8.20;;;2.20;;
1682;SDS011;13252;53.596;10.060;2023-03-23T10:21:59;7.00;;;2.10;;
1682;SDS011;13252;53.596;10.060;2023-03-23T10:24:31;11.57;;;3.17;;
1682;SDS011;13252;53.596;10.060;2023-03-23T10:27:05;9.67;;;3.00;;
1682;SDS011;13252;53.596;10.060;2023-03-23T10:29:40;11.30;;;2.90;;
1682;SDS011;13252;53.596;10.060;2023-03-23T10:32:11;12.53;;;3.03;;
1682;SDS011;13252;53.596;10.060;2023-03-23T10:34:41;10.73;;;2.30;;
1682;SDS011;13252;53.596;10.060;2023-03-23T10:37:11;12.10;;;2.63;;
1682;SDS011;13252;53.596;10.060;2023-03-23T10:39:42;18.63;;;4.60;;
1682;SDS011;13252;53.596;10.060;2023-03-23T10:42:20;10.80;;;2.50;;
1682;SDS011;13252;53.596;10.060;2023-03-23T10:44:50;16.67;;;3.07;;
1682;SDS011;13252;53.596;10.060;2023-03-23T10:47:17;10.27;;;3.10;;
1682;SDS011;13252;53.596;10.060;2023-03-23T10:49:45;12.97;;;3.53;;
1682;SDS011;13252;53.596;10.060;2023-03-23T10:52:24;11.13;;;3.23;;
1682;SDS011;13252;53.596;10.060;2023-03-23T10:54:55;8.40;;;2.50;;
1682;SDS011;13252;53.596;10.060;2023-03-23T10:57:23;8.97;;;2.57;;
1682;SDS011;13252;53.596;10.060;2023-03-23T10:59:57;8.23;;;2.40;;
1682;SDS011;13252;53.596;10.060;2023-03-23T11:02:24;12.40;;;2.80;;
1682;SDS011;13252;53.596;10.060;2023-03-23T11:04:59;14.13;;;3.33;;
1682;SDS011;13252;53.596;10.060;2023-03-23T11:07:31;12.53;;;3.07;;
1682;SDS011;13252;53.596;10.060;2023-03-23T11:10:05;9.37;;;2.40;;
1682;SDS011;13252;53.596;10.060;2023-03-23T11:12:34;10.93;;;2.20;;
1682;SDS011;13252;53.596;10.060;2023-03-23T11:15:15;15.20;;;3.50;;
1682;SDS011;13252;53.596;10.060;2023-03-23T11:17:54;16.33;;;4.40;;
1682;SDS011;13252;53.596;10.060;2023-03-23T11:20:22;15.07;;;3.30;;
1682;SDS011;13252;53.596;10.060;2023-03-23T11:22:49;13.27;;;3.10;;
1682;SDS011;13252;53.596;10.060;2023-03-23T11:25:15;12.50;;;2.93;;
1682;SDS011;13252;53.596;10.060;2023-03-23T11:27:42;11.43;;;2.90;;
1682;SDS011;13252;53.596;10.060;2023-03-23T11:30:09;10.53;;;2.30;;
1682;SDS011;13252;53.596;10.060;2023-03-23T11:32:44;14.73;;;2.77;;
1682;SDS011;13252;53.596;10.060;2023-03-23T11:35:15;13.27;;;3.20;;
1682;SDS011;13252;53.596;10.060;2023-03-23T11:37:45;17.30;;;3.27;;
1682;SDS011;13252;53.596;10.060;2023-03-23T11:40:14;20.33;;;4.40;;
1682;SDS011;13252;53.596;10.060;2023-03-23T11:42:44;15.83;;;3.00;;
1682;SDS011;13252;53.596;10.060;2023-03-23T11:45:17;15.37;;;3.13;;
1682;SDS011;13252;53.596;10.060;2023-03-23T11:47:49;12.20;;;4.07;;
1682;SDS011;13252;53.596;10.060;2023-03-23T11:50:22;12.77;;;3.33;;
1682;SDS011;13252;53.596;10.060;2023-03-23T11:52:52;13.07;;;3.57;;
1682;SDS011;13252;53.596;10.060;2023-03-23T11:55:26;14.87;;;3.73;;
1682;SDS011;13252;53.596;10.060;2023-03-23T11:57:54;14.80;;;3.30;;
1682;SDS011;13252;53.596;10.060;2023-03-23T12:00:23;13.93;;;3.97;;
1682;SDS011;13252;53.596;10.060;2023-03-23T12:05:53;17.20;;;3.93;;
1682;SDS011;13252;53.596;10.060;2023-03-23T12:08:28;13.17;;;3.53;;
1682;SDS011;13252;53.596;10.060;2023-03-23T12:11:06;10.60;;;3.63;;
1682;SDS011;13252;53.596;10.060;2023-03-23T12:13:42;12.67;;;3.53;;
1682;SDS011;13252;53.596;10.060;2023-03-23T12:16:22;11.93;;;4.17;;
1682;SDS011;13252;53.596;10.060;2023-03-23T12:18:57;10.53;;;3.63;;
1682;SDS011;13252;53.596;10.060;2023-03-23T12:21:32;13.00;;;3.80;;
1682;SDS011;13252;53.596;10.060;2023-03-23T12:24:06;13.33;;;4.63;;
1682;SDS011;13252;53.596;10.060;2023-03-23T12:26:41;11.50;;;4.20;;
1682;SDS011;13252;53.596;10.060;2023-03-23T12:29:34;21.17;;;5.10;;
1682;SDS011;13252;53.596;10.060;2023-03-23T12:32:25;10.23;;;4.20;;
1682;SDS011;13252;53.596;10.060;2023-03-23T12:35:13;17.00;;;4.77;;
1682;SDS011;13252;53.596;10.060;2023-03-23T12:37:48;20.20;;;5.20;;
1682;SDS011;13252;53.596;10.060;2023-03-23T12:40:23;15.27;;;5.10;;
1682;SDS011;13252;53.596;10.060;2023-03-23T12:42:57;10.57;;;4.60;;
1682;SDS011;13252;53.596;10.060;2023-03-23T12:45:37;13.53;;;4.90;;
1682;SDS011;13252;53.596;10.060;2023-03-23T12:48:13;12.83;;;5.40;;
1682;SDS011;13252;53.596;10.060;2023-03-23T12:50:42;11.90;;;4.83;;
1682;SDS011;13252;53.596;10.060;2023-03-23T12:53:13;11.23;;;4.50;;
1682;SDS011;13252;53.596;10.060;2023-03-23T12:55:44;10.97;;;4.40;;
1682;SDS011;13252;53.596;10.060;2023-03-23T12:58:12;14.73;;;4.77;;
1682;SDS011;13252;53.596;10.060;2023-03-23T13:00:49;11.70;;;4.70;;
1682;SDS011;13252;53.596;10.060;2023-03-23T13:03:22;25.20;;;5.67;;
1682;SDS011;13252;53.596;10.060;2023-03-23T13:05:54;13.93;;;3.80;;
1682;SDS011;13252;53.596;10.060;2023-03-23T13:08:25;12.20;;;4.40;;
1682;SDS011;13252;53.596;10.060;2023-03-23T13:10:54;14.37;;;4.00;;
1682;SDS011;13252;53.596;10.060;2023-03-23T13:13:25;8.77;;;3.80;;
1682;SDS011;13252;53.596;10.060;2023-03-23T13:16:07;11.90;;;4.77;;
1682;SDS011;13252;53.596;10.060;2023-03-23T13:18:40;14.23;;;4.77;;
1682;SDS011;13252;53.596;10.060;2023-03-23T13:21:14;13.50;;;5.53;;
1682;SDS011;13252;53.596;10.060;2023-03-23T13:23:44;16.70;;;5.03;;
1682;SDS011;13252;53.596;10.060;2023-03-23T13:26:14;14.50;;;4.47;;
1682;SDS011;13252;53.596;10.060;2023-03-23T13:28:54;9.60;;;4.33;;
1682;SDS011;13252;53.596;10.060;2023-03-23T13:31:23;11.87;;;3.40;;
1682;SDS011;13252;53.596;10.060;2023-03-23T13:33:53;14.53;;;4.50;;
1682;SDS011;13252;53.596;10.060;2023-03-23T13:36:26;11.30;;;3.80;;
1682;SDS011;13252;53.596;10.060;2023-03-23T13:38:54;11.03;;;4.43;;
1682;SDS011;13252;53.596;10.060;2023-03-23T13:41:22;16.60;;;3.77;;
1682;SDS011;13252;53.596;10.060;2023-03-23T13:43:49;11.23;;;2.70;;
1682;SDS011;13252;53.596;10.060;2023-03-23T13:46:27;9.37;;;3.60;;
1682;SDS011;13252;53.596;10.060;2023-03-23T13:49:05;9.70;;;3.40;;
1682;SDS011;13252;53.596;10.060;2023-03-23T13:51:56;12.63;;;3.70;;
1682;SDS011;13252;53.596;10.060;2023-03-23T13:54:30;5.90;;;3.13;;
1682;SDS011;13252;53.596;10.060;2023-03-23T13:56:58;8.03;;;3.03;;
1682;SDS011;13252;53.596;10.060;2023-03-23T13:59:34;11.03;;;3.70;;
1682;SDS011;13252;53.596;10.060;2023-03-23T14:02:28;6.23;;;2.30;;
1682;SDS011;13252;53.596;10.060;2023-03-23T14:05:07;7.50;;;1.73;;
1682;SDS011;13252;53.596;10.060;2023-03-23T14:07:49;5.40;;;2.57;;
1682;SDS011;13252;53.596;10.060;2023-03-23T14:10:20;8.60;;;1.60;;
1682;SDS011;13252;53.596;10.060;2023-03-23T14:12:48;4.00;;;1.30;;
1682;SDS011;13252;53.596;10.060;2023-03-23T14:15:16;7.90;;;1.50;;
1682;SDS011;13252;53.596;10.060;2023-03-23T14:17:43;8.30;;;1.90;;
1682;SDS011;13252;53.596;10.060;2023-03-23T14:20:23;6.27;;;1.80;;
1682;SDS011;13252;53.596;10.060;2023-03-23T14:22:55;4.40;;;1.90;;
1682;SDS011;13252;53.596;10.060;2023-03-23T14:25:25;5.50;;;3.13;;
1682;SDS011;13252;53.596;10.060;2023-03-23T14:27:53;8.97;;;2.07;;
1682;SDS011;13252;53.596;10.060;2023-03-23T14:30:21;8.17;;;2.83;;
1682;SDS011;13252;53.596;10.060;2023-03-23T14:32:50;5.83;;;2.37;;
1682;SDS011;13252;53.596;10.060;2023-03-23T14:35:19;5.20;;;1.60;;
1682;SDS011;13252;53.596;10.060;2023-03-23T14:37:49;5.83;;;2.07;;
1682;SDS011;13252;53.596;10.060;2023-03-23T14:40:17;3.40;;;1.90;;
1682;SDS011;13252;53.596;10.060;2023-03-23T14:42:44;4.77;;;2.00;;
1682;SDS011;13252;53.596;10.060;2023-03-23T14:45:12;10.23;;;2.33;;
1682;SDS011;13252;53.596;10.060;2023-03-23T14:47:42;7.60;;;2.07;;
1682;SDS011;13252;53.596;10.060;2023-03-23T14:50:26;6.30;;;1.57;;
1682;SDS011;13252;53.596;10.060;2023-03-23T14:52:59;4.47;;;2.00;;
1682;SDS011;13252;53.596;10.060;2023-03-23T14:55:30;8.53;;;2.17;;
1682;SDS011;13252;53.596;10.060;2023-03-23T14:58:05;11.00;;;2.10;;
1682;SDS011;13252;53.596;10.060;2023-03-23T15:00:34;9.70;;;2.77;;
1682;SDS011;13252;53.596;10.060;2023-03-23T15:03:02;7.53;;;2.37;;
1682;SDS011;13252;53.596;10.060;2023-03-23T15:05:32;6.93;;;2.20;;
1682;SDS011;13252;53.596;10.060;2023-03-23T15:08:03;7.13;;;1.60;;
1682;SDS011;13252;53.596;10.060;2023-03-23T15:10:31;5.20;;;1.53;;
1682;SDS011;13252;53.596;10.060;2023-03-23T15:12:58;11.17;;;2.20;;
1682;SDS011;13252;53.596;10.060;2023-03-23T15:15:26;13.97;;;3.53;;
1682;SDS011;13252;53.596;10.060;2023-03-23T15:17:54;9.23;;;2.67;;
1682;SDS011;13252;53.596;10.060;2023-03-23T15:20:23;13.40;;;3.57;;